sensor_id;sensor_type;location;lat;lon;timestamp;temperature;humidity
44990;DHT22;30723;51.206;3.326;2024-02-15T00:01:02;12.70;99.90
44990;DHT22;30723;51.206;3.326;2024-02-15T00:03:30;12.60;99.90
44990;DHT22;30723;51.206;3.326;2024-02-15T00:05:57;12.70;99.90
44990;DHT22;30723;51.206;3.326;2024-02-15T00:08:23;12.70;99.90
44990;DHT22;30723;51.206;3.326;2024-02-15T00:10:52;12.70;99.90
44990;DHT22;30723;51.206;3.326;2024-02-15T00:13:19;12.70;99.90
44990;DHT22;30723;51.206;3.326;2024-02-15T00:15:45;12.80;99.90
44990;DHT22;30723;51.206;3.326;2024-02-15T00:18:14;12.80;99.90
44990;DHT22;30723;51.206;3.326;2024-02-15T00:20:39;12.80;99.90
44990;DHT22;30723;51.206;3.326;2024-02-15T00:23:05;12.80;99.90
44990;DHT22;30723;51.206;3.326;2024-02-15T00:25:32;12.80;99.90
44990;DHT22;30723;51.206;3.326;2024-02-15T00:27:58;12.80;99.90
44990;DHT22;30723;51.206;3.326;2024-02-15T00:30:28;12.80;99.90
44990;DHT22;30723;51.206;3.326;2024-02-15T00:32:54;12.80;99.90
44990;DHT22;30723;51.206;3.326;2024-02-15T00:35:20;12.80;99.90
44990;DHT22;30723;51.206;3.326;2024-02-15T00:37:46;12.80;99.90
44990;DHT22;30723;51.206;3.326;2024-02-15T00:40:12;12.80;99.90
44990;DHT22;30723;51.206;3.326;2024-02-15T00:42:38;12.90;99.90
44990;DHT22;30723;51.206;3.326;2024-02-15T00:45:05;12.90;99.90
44990;DHT22;30723;51.206;3.326;2024-02-15T00:47:30;13.00;99.90
44990;DHT22;30723;51.206;3.326;2024-02-15T00:49:56;13.00;99.90
44990;DHT22;30723;51.206;3.326;2024-02-15T00:52:22;13.00;99.90
44990;DHT22;30723;51.206;3.326;2024-02-15T00:54:49;13.00;99.90
44990;DHT22;30723;51.206;3.326;2024-02-15T00:57:14;13.00;99.90
44990;DHT22;30723;51.206;3.326;2024-02-15T00:59:40;13.00;99.90
44990;DHT22;30723;51.206;3.326;2024-02-15T01:02:06;13.10;99.90
44990;DHT22;30723;51.206;3.326;2024-02-15T01:04:31;13.10;99.90
44990;DHT22;30723;51.206;3.326;2024-02-15T01:06:57;13.10;99.90
44990;DHT22;30723;51.206;3.326;2024-02-15T01:09:23;13.20;99.90
44990;DHT22;30723;51.206;3.326;2024-02-15T01:11:49;13.20;99.90
44990;DHT22;30723;51.206;3.326;2024-02-15T01:14:15;13.20;99.90
44990;DHT22;30723;51.206;3.326;2024-02-15T01:16:41;13.20;99.90
44990;DHT22;30723;51.206;3.326;2024-02-15T01:19:07;13.10;99.90
44990;DHT22;30723;51.206;3.326;2024-02-15T01:21:33;13.10;99.90
44990;DHT22;30723;51.206;3.326;2024-02-15T01:23:59;13.10;99.90
44990;DHT22;30723;51.206;3.326;2024-02-15T01:26:26;13.10;99.90
44990;DHT22;30723;51.206;3.326;2024-02-15T01:28:52;13.10;99.90
44990;DHT22;30723;51.206;3.326;2024-02-15T01:31:18;13.10;99.90
44990;DHT22;30723;51.206;3.326;2024-02-15T01:33:45;13.10;99.90
44990;DHT22;30723;51.206;3.326;2024-02-15T01:36:14;13.20;99.90
44990;DHT22;30723;51.206;3.326;2024-02-15T01:38:41;13.10;99.90
44990;DHT22;30723;51.206;3.326;2024-02-15T01:41:07;13.10;99.90
44990;DHT22;30723;51.206;3.326;2024-02-15T01:43:34;13.10;99.90
44990;DHT22;30723;51.206;3.326;2024-02-15T01:46:00;13.10;99.90
44990;DHT22;30723;51.206;3.326;2024-02-15T01:48:30;13.20;99.90
44990;DHT22;30723;51.206;3.326;2024-02-15T01:50:57;13.10;99.90
44990;DHT22;30723;51.206;3.326;2024-02-15T01:53:24;13.10;99.90
44990;DHT22;30723;51.206;3.326;2024-02-15T01:55:53;13.10;99.90
44990;DHT22;30723;51.206;3.326;2024-02-15T01:58:20;13.00;99.90
44990;DHT22;30723;51.206;3.326;2024-02-15T02:00:46;13.10;99.90
44990;DHT22;30723;51.206;3.326;2024-02-15T02:03:14;13.10;99.90
44990;DHT22;30723;51.206;3.326;2024-02-15T02:05:41;13.10;99.90
44990;DHT22;30723;51.206;3.326;2024-02-15T02:08:07;13.10;99.90
44990;DHT22;30723;51.206;3.326;2024-02-15T02:10:38;13.10;99.90
44990;DHT22;30723;51.206;3.326;2024-02-15T02:13:04;13.00;99.90
44990;DHT22;30723;51.206;3.326;2024-02-15T02:15:34;13.00;99.90
44990;DHT22;30723;51.206;3.326;2024-02-15T02:18:00;13.00;99.90
44990;DHT22;30723;51.206;3.326;2024-02-15T02:20:26;13.10;99.90
44990;DHT22;30723;51.206;3.326;2024-02-15T02:22:54;13.10;99.90
44990;DHT22;30723;51.206;3.326;2024-02-15T02:25:24;13.00;99.90
44990;DHT22;30723;51.206;3.326;2024-02-15T02:27:52;13.00;99.90
44990;DHT22;30723;51.206;3.326;2024-02-15T02:30:17;13.00;99.90
44990;DHT22;30723;51.206;3.326;2024-02-15T02:32:48;13.00;99.90
44990;DHT22;30723;51.206;3.326;2024-02-15T02:35:14;12.90;99.90
44990;DHT22;30723;51.206;3.326;2024-02-15T02:37:42;12.90;99.90
44990;DHT22;30723;51.206;3.326;2024-02-15T02:40:08;13.00;99.90
44990;DHT22;30723;51.206;3.326;2024-02-15T02:42:54;12.90;99.90
44990;DHT22;30723;51.206;3.326;2024-02-15T02:45:25;13.00;99.90
44990;DHT22;30723;51.206;3.326;2024-02-15T02:47:52;13.00;99.90
44990;DHT22;30723;51.206;3.326;2024-02-15T02:50:19;13.00;99.90
44990;DHT22;30723;51.206;3.326;2024-02-15T02:52:45;13.00;99.90
44990;DHT22;30723;51.206;3.326;2024-02-15T02:55:11;13.00;99.90
44990;DHT22;30723;51.206;3.326;2024-02-15T02:57:38;12.90;99.90
44990;DHT22;30723;51.206;3.326;2024-02-15T03:00:09;13.00;99.90
44990;DHT22;30723;51.206;3.326;2024-02-15T03:02:38;13.00;99.90
44990;DHT22;30723;51.206;3.326;2024-02-15T03:05:05;13.00;99.90
44990;DHT22;30723;51.206;3.326;2024-02-15T03:07:35;13.00;99.90
44990;DHT22;30723;51.206;3.326;2024-02-15T03:10:02;13.00;99.90
44990;DHT22;30723;51.206;3.326;2024-02-15T03:12:30;13.10;99.90
44990;DHT22;30723;51.206;3.326;2024-02-15T03:14:56;13.10;99.90
44990;DHT22;30723;51.206;3.326;2024-02-15T03:17:25;13.00;99.90
44990;DHT22;30723;51.206;3.326;2024-02-15T03:19:51;13.10;99.90
44990;DHT22;30723;51.206;3.326;2024-02-15T03:22:17;13.00;99.90
44990;DHT22;30723;51.206;3.326;2024-02-15T03:24:43;13.00;99.90
44990;DHT22;30723;51.206;3.326;2024-02-15T03:27:09;12.90;99.90
44990;DHT22;30723;51.206;3.326;2024-02-15T03:29:38;12.90;99.90
44990;DHT22;30723;51.206;3.326;2024-02-15T03:32:04;12.90;99.90
44990;DHT22;30723;51.206;3.326;2024-02-15T03:34:31;13.00;99.90
44990;DHT22;30723;51.206;3.326;2024-02-15T03:36:57;13.00;99.90
44990;DHT22;30723;51.206;3.326;2024-02-15T03:39:23;12.90;99.90
44990;DHT22;30723;51.206;3.326;2024-02-15T03:41:50;13.00;99.90
44990;DHT22;30723;51.206;3.326;2024-02-15T03:44:17;13.00;99.90
44990;DHT22;30723;51.206;3.326;2024-02-15T03:46:44;13.00;99.90
44990;DHT22;30723;51.206;3.326;2024-02-15T03:49:17;13.00;99.90
44990;DHT22;30723;51.206;3.326;2024-02-15T03:51:43;13.00;99.90
44990;DHT22;30723;51.206;3.326;2024-02-15T03:54:11;13.00;99.90
44990;DHT22;30723;51.206;3.326;2024-02-15T03:56:40;12.90;99.90
44990;DHT22;30723;51.206;3.326;2024-02-15T03:59:11;12.90;99.90
44990;DHT22;30723;51.206;3.326;2024-02-15T04:01:38;13.00;99.90
44990;DHT22;30723;51.206;3.326;2024-02-15T04:04:05;12.90;99.90
44990;DHT22;30723;51.206;3.326;2024-02-15T04:06:31;12.90;99.90
44990;DHT22;30723;51.206;3.326;2024-02-15T04:08:59;13.00;99.90
44990;DHT22;30723;51.206;3.326;2024-02-15T04:11:25;13.00;99.90
44990;DHT22;30723;51.206;3.326;2024-02-15T04:13:51;13.00;99.90
44990;DHT22;30723;51.206;3.326;2024-02-15T04:16:17;13.00;99.90
44990;DHT22;30723;51.206;3.326;2024-02-15T04:18:43;13.00;99.90
44990;DHT22;30723;51.206;3.326;2024-02-15T04:21:10;13.00;99.90
44990;DHT22;30723;51.206;3.326;2024-02-15T04:23:36;13.00;99.90
44990;DHT22;30723;51.206;3.326;2024-02-15T04:26:02;13.00;99.90
44990;DHT22;30723;51.206;3.326;2024-02-15T04:28:29;13.00;99.90
44990;DHT22;30723;51.206;3.326;2024-02-15T04:30:54;13.00;99.90
44990;DHT22;30723;51.206;3.326;2024-02-15T04:33:21;13.00;99.90
44990;DHT22;30723;51.206;3.326;2024-02-15T04:35:46;12.90;99.90
44990;DHT22;30723;51.206;3.326;2024-02-15T04:38:14;12.90;99.90
44990;DHT22;30723;51.206;3.326;2024-02-15T04:40:40;13.00;99.90
44990;DHT22;30723;51.206;3.326;2024-02-15T04:43:06;13.00;99.90
44990;DHT22;30723;51.206;3.326;2024-02-15T04:45:34;12.90;99.90
44990;DHT22;30723;51.206;3.326;2024-02-15T04:48:00;12.90;99.90
44990;DHT22;30723;51.206;3.326;2024-02-15T04:50:28;13.00;99.90
44990;DHT22;30723;51.206;3.326;2024-02-15T04:52:55;13.00;99.90
44990;DHT22;30723;51.206;3.326;2024-02-15T04:55:20;12.90;99.90
44990;DHT22;30723;51.206;3.326;2024-02-15T04:57:48;12.90;99.90
44990;DHT22;30723;51.206;3.326;2024-02-15T05:00:15;12.90;99.90
44990;DHT22;30723;51.206;3.326;2024-02-15T05:02:41;12.90;99.90
44990;DHT22;30723;51.206;3.326;2024-02-15T05:05:09;13.00;99.90
44990;DHT22;30723;51.206;3.326;2024-02-15T05:07:35;12.90;99.90
44990;DHT22;30723;51.206;3.326;2024-02-15T05:10:05;13.00;99.90
44990;DHT22;30723;51.206;3.326;2024-02-15T05:12:33;12.90;99.90
44990;DHT22;30723;51.206;3.326;2024-02-15T05:14:59;13.00;99.90
44990;DHT22;30723;51.206;3.326;2024-02-15T05:17:25;13.00;99.90
44990;DHT22;30723;51.206;3.326;2024-02-15T05:19:52;13.00;99.90
44990;DHT22;30723;51.206;3.326;2024-02-15T05:22:18;12.90;99.90
44990;DHT22;30723;51.206;3.326;2024-02-15T05:24:44;13.00;99.90
44990;DHT22;30723;51.206;3.326;2024-02-15T05:27:10;13.00;99.90
44990;DHT22;30723;51.206;3.326;2024-02-15T05:29:36;13.00;99.90
44990;DHT22;30723;51.206;3.326;2024-02-15T05:32:02;12.90;99.90
44990;DHT22;30723;51.206;3.326;2024-02-15T05:34:28;13.00;99.90
44990;DHT22;30723;51.206;3.326;2024-02-15T05:36:56;13.00;99.90
44990;DHT22;30723;51.206;3.326;2024-02-15T05:39:22;13.00;99.90
44990;DHT22;30723;51.206;3.326;2024-02-15T05:41:48;13.00;99.90
44990;DHT22;30723;51.206;3.326;2024-02-15T05:44:14;13.00;99.90
44990;DHT22;30723;51.206;3.326;2024-02-15T05:46:45;13.00;99.90
44990;DHT22;30723;51.206;3.326;2024-02-15T05:49:10;13.00;99.90
44990;DHT22;30723;51.206;3.326;2024-02-15T05:51:41;13.00;99.90
44990;DHT22;30723;51.206;3.326;2024-02-15T05:54:07;12.90;99.90
44990;DHT22;30723;51.206;3.326;2024-02-15T05:56:33;12.90;99.90
44990;DHT22;30723;51.206;3.326;2024-02-15T05:58:58;12.90;99.90
44990;DHT22;30723;51.206;3.326;2024-02-15T06:01:24;12.90;99.90
44990;DHT22;30723;51.206;3.326;2024-02-15T06:03:50;12.90;99.90
44990;DHT22;30723;51.206;3.326;2024-02-15T06:06:20;12.90;99.90
44990;DHT22;30723;51.206;3.326;2024-02-15T06:08:47;12.90;99.90
44990;DHT22;30723;51.206;3.326;2024-02-15T06:11:13;12.90;99.90
44990;DHT22;30723;51.206;3.326;2024-02-15T06:13:40;12.90;99.90
44990;DHT22;30723;51.206;3.326;2024-02-15T06:16:06;12.80;99.90
44990;DHT22;30723;51.206;3.326;2024-02-15T06:18:37;12.90;99.90
44990;DHT22;30723;51.206;3.326;2024-02-15T06:21:03;12.90;99.90
44990;DHT22;30723;51.206;3.326;2024-02-15T06:23:29;12.90;99.90
44990;DHT22;30723;51.206;3.326;2024-02-15T06:25:56;12.90;99.90
44990;DHT22;30723;51.206;3.326;2024-02-15T06:28:23;12.90;99.90
44990;DHT22;30723;51.206;3.326;2024-02-15T06:31:09;12.80;99.90
44990;DHT22;30723;51.206;3.326;2024-02-15T06:33:53;12.90;99.90
44990;DHT22;30723;51.206;3.326;2024-02-15T06:39:25;12.80;99.90
44990;DHT22;30723;51.206;3.326;2024-02-15T06:42:16;12.80;99.90
44990;DHT22;30723;51.206;3.326;2024-02-15T06:44:46;12.80;99.90
44990;DHT22;30723;51.206;3.326;2024-02-15T06:47:12;12.90;99.90
44990;DHT22;30723;51.206;3.326;2024-02-15T06:49:41;12.80;99.90
44990;DHT22;30723;51.206;3.326;2024-02-15T06:52:08;12.80;99.90
44990;DHT22;30723;51.206;3.326;2024-02-15T06:54:41;12.80;99.90
44990;DHT22;30723;51.206;3.326;2024-02-15T06:57:07;12.80;99.90
44990;DHT22;30723;51.206;3.326;2024-02-15T06:59:33;12.80;99.90
44990;DHT22;30723;51.206;3.326;2024-02-15T07:02:05;12.90;99.90
44990;DHT22;30723;51.206;3.326;2024-02-15T07:04:33;12.90;99.90
44990;DHT22;30723;51.206;3.326;2024-02-15T07:06:59;12.80;99.90
44990;DHT22;30723;51.206;3.326;2024-02-15T07:09:25;12.80;99.90
44990;DHT22;30723;51.206;3.326;2024-02-15T07:11:51;12.70;99.90
44990;DHT22;30723;51.206;3.326;2024-02-15T07:14:17;12.80;99.90
44990;DHT22;30723;51.206;3.326;2024-02-15T07:16:47;12.80;99.90
44990;DHT22;30723;51.206;3.326;2024-02-15T07:19:14;12.80;99.90
44990;DHT22;30723;51.206;3.326;2024-02-15T07:21:41;12.80;99.90
44990;DHT22;30723;51.206;3.326;2024-02-15T07:24:07;12.80;99.90
44990;DHT22;30723;51.206;3.326;2024-02-15T07:26:33;12.70;99.90
44990;DHT22;30723;51.206;3.326;2024-02-15T07:29:00;12.70;99.90
44990;DHT22;30723;51.206;3.326;2024-02-15T07:31:29;12.70;99.90
44990;DHT22;30723;51.206;3.326;2024-02-15T07:33:55;12.70;99.90
44990;DHT22;30723;51.206;3.326;2024-02-15T07:36:22;12.70;99.90
44990;DHT22;30723;51.206;3.326;2024-02-15T07:38:48;12.70;99.90
44990;DHT22;30723;51.206;3.326;2024-02-15T07:41:16;12.70;99.90
44990;DHT22;30723;51.206;3.326;2024-02-15T07:43:43;12.70;99.90
44990;DHT22;30723;51.206;3.326;2024-02-15T07:46:13;12.80;99.90
44990;DHT22;30723;51.206;3.326;2024-02-15T07:48:39;12.80;99.90
44990;DHT22;30723;51.206;3.326;2024-02-15T07:51:11;12.80;99.90
44990;DHT22;30723;51.206;3.326;2024-02-15T07:53:37;12.80;99.90
44990;DHT22;30723;51.206;3.326;2024-02-15T07:56:03;12.80;99.90
44990;DHT22;30723;51.206;3.326;2024-02-15T07:58:29;12.80;99.90
44990;DHT22;30723;51.206;3.326;2024-02-15T08:00:56;12.80;99.90
44990;DHT22;30723;51.206;3.326;2024-02-15T08:03:22;12.80;99.90
44990;DHT22;30723;51.206;3.326;2024-02-15T08:05:48;12.80;99.90
44990;DHT22;30723;51.206;3.326;2024-02-15T08:08:13;12.80;99.90
44990;DHT22;30723;51.206;3.326;2024-02-15T08:10:39;12.80;99.90
44990;DHT22;30723;51.206;3.326;2024-02-15T08:13:05;12.70;99.90
44990;DHT22;30723;51.206;3.326;2024-02-15T08:15:31;12.80;99.90
44990;DHT22;30723;51.206;3.326;2024-02-15T08:17:58;12.80;99.90
44990;DHT22;30723;51.206;3.326;2024-02-15T08:20:24;12.90;99.90
44990;DHT22;30723;51.206;3.326;2024-02-15T08:22:50;12.90;99.90
44990;DHT22;30723;51.206;3.326;2024-02-15T08:25:16;12.90;99.90
44990;DHT22;30723;51.206;3.326;2024-02-15T08:27:46;13.00;99.90
44990;DHT22;30723;51.206;3.326;2024-02-15T08:30:15;13.00;99.90
44990;DHT22;30723;51.206;3.326;2024-02-15T08:32:41;13.00;99.90
44990;DHT22;30723;51.206;3.326;2024-02-15T08:35:09;13.00;99.90
44990;DHT22;30723;51.206;3.326;2024-02-15T08:37:39;13.00;99.90
44990;DHT22;30723;51.206;3.326;2024-02-15T08:40:07;13.10;99.90
44990;DHT22;30723;51.206;3.326;2024-02-15T08:42:42;13.10;99.90
44990;DHT22;30723;51.206;3.326;2024-02-15T08:45:09;13.10;99.90
44990;DHT22;30723;51.206;3.326;2024-02-15T08:47:36;13.10;99.90
44990;DHT22;30723;51.206;3.326;2024-02-15T08:50:04;13.10;99.90
44990;DHT22;30723;51.206;3.326;2024-02-15T08:52:30;13.20;99.90
44990;DHT22;30723;51.206;3.326;2024-02-15T08:54:55;13.20;99.90
44990;DHT22;30723;51.206;3.326;2024-02-15T08:57:23;13.30;99.90
44990;DHT22;30723;51.206;3.326;2024-02-15T08:59:49;13.30;99.90
44990;DHT22;30723;51.206;3.326;2024-02-15T09:02:17;13.30;99.90
44990;DHT22;30723;51.206;3.326;2024-02-15T09:04:43;13.40;99.90
44990;DHT22;30723;51.206;3.326;2024-02-15T09:07:09;13.40;99.90
44990;DHT22;30723;51.206;3.326;2024-02-15T09:09:35;13.50;99.90
44990;DHT22;30723;51.206;3.326;2024-02-15T09:12:02;13.60;99.90
44990;DHT22;30723;51.206;3.326;2024-02-15T09:14:35;13.70;99.90
44990;DHT22;30723;51.206;3.326;2024-02-15T09:17:02;13.80;99.90
44990;DHT22;30723;51.206;3.326;2024-02-15T09:19:34;13.90;99.90
44990;DHT22;30723;51.206;3.326;2024-02-15T09:22:01;14.00;99.90
44990;DHT22;30723;51.206;3.326;2024-02-15T09:24:26;14.00;99.90
44990;DHT22;30723;51.206;3.326;2024-02-15T09:26:54;14.00;99.90
44990;DHT22;30723;51.206;3.326;2024-02-15T09:29:20;14.10;99.90
44990;DHT22;30723;51.206;3.326;2024-02-15T09:31:47;14.10;99.90
44990;DHT22;30723;51.206;3.326;2024-02-15T09:34:13;14.20;99.90
44990;DHT22;30723;51.206;3.326;2024-02-15T09:36:39;14.20;99.90
44990;DHT22;30723;51.206;3.326;2024-02-15T09:39:05;14.30;99.90
44990;DHT22;30723;51.206;3.326;2024-02-15T09:41:32;14.30;99.90
44990;DHT22;30723;51.206;3.326;2024-02-15T09:43:59;14.40;99.90
44990;DHT22;30723;51.206;3.326;2024-02-15T09:46:27;14.50;99.90
44990;DHT22;30723;51.206;3.326;2024-02-15T09:48:56;14.60;99.90
44990;DHT22;30723;51.206;3.326;2024-02-15T09:51:29;14.70;99.90
44990;DHT22;30723;51.206;3.326;2024-02-15T09:53:59;14.70;99.90
44990;DHT22;30723;51.206;3.326;2024-02-15T09:56:26;14.80;99.90
44990;DHT22;30723;51.206;3.326;2024-02-15T09:58:54;14.80;99.90
44990;DHT22;30723;51.206;3.326;2024-02-15T10:01:22;14.90;99.90
44990;DHT22;30723;51.206;3.326;2024-02-15T10:03:52;15.00;99.90
44990;DHT22;30723;51.206;3.326;2024-02-15T10:06:19;15.10;99.90
44990;DHT22;30723;51.206;3.326;2024-02-15T10:08:44;15.10;99.90
44990;DHT22;30723;51.206;3.326;2024-02-15T10:11:12;15.10;99.90
44990;DHT22;30723;51.206;3.326;2024-02-15T10:13:38;15.20;99.90
44990;DHT22;30723;51.206;3.326;2024-02-15T10:16:18;15.30;99.90
44990;DHT22;30723;51.206;3.326;2024-02-15T10:18:45;15.30;99.90
44990;DHT22;30723;51.206;3.326;2024-02-15T10:21:32;15.40;99.90
44990;DHT22;30723;51.206;3.326;2024-02-15T10:24:08;15.40;99.90
44990;DHT22;30723;51.206;3.326;2024-02-15T10:26:34;15.40;99.90
44990;DHT22;30723;51.206;3.326;2024-02-15T10:29:11;15.40;99.90
44990;DHT22;30723;51.206;3.326;2024-02-15T10:31:40;15.50;99.90
44990;DHT22;30723;51.206;3.326;2024-02-15T10:34:07;15.60;99.90
44990;DHT22;30723;51.206;3.326;2024-02-15T10:36:34;15.70;99.90
44990;DHT22;30723;51.206;3.326;2024-02-15T10:39:11;15.60;99.90
44990;DHT22;30723;51.206;3.326;2024-02-15T10:41:44;15.80;99.90
44990;DHT22;30723;51.206;3.326;2024-02-15T10:44:15;15.90;99.90
44990;DHT22;30723;51.206;3.326;2024-02-15T10:46:42;16.00;99.90
44990;DHT22;30723;51.206;3.326;2024-02-15T10:49:08;16.30;99.90
44990;DHT22;30723;51.206;3.326;2024-02-15T10:51:36;16.50;99.90
44990;DHT22;30723;51.206;3.326;2024-02-15T10:54:04;16.70;99.90
44990;DHT22;30723;51.206;3.326;2024-02-15T10:56:37;17.40;99.90
44990;DHT22;30723;51.206;3.326;2024-02-15T10:59:16;17.70;99.90
44990;DHT22;30723;51.206;3.326;2024-02-15T11:01:43;17.90;99.90
44990;DHT22;30723;51.206;3.326;2024-02-15T11:04:14;18.20;99.90
44990;DHT22;30723;51.206;3.326;2024-02-15T11:06:42;18.90;99.90
44990;DHT22;30723;51.206;3.326;2024-02-15T11:09:10;20.00;99.90
44990;DHT22;30723;51.206;3.326;2024-02-15T11:11:37;20.90;99.90
44990;DHT22;30723;51.206;3.326;2024-02-15T11:14:45;21.20;99.90
44990;DHT22;30723;51.206;3.326;2024-02-15T11:17:11;21.10;99.90
44990;DHT22;30723;51.206;3.326;2024-02-15T11:22:13;21.20;99.90
44990;DHT22;30723;51.206;3.326;2024-02-15T11:24:49;21.20;99.90
44990;DHT22;30723;51.206;3.326;2024-02-15T11:27:26;20.60;99.90
44990;DHT22;30723;51.206;3.326;2024-02-15T11:29:56;20.10;99.90
44990;DHT22;30723;51.206;3.326;2024-02-15T11:32:37;19.90;99.90
44990;DHT22;30723;51.206;3.326;2024-02-15T11:35:12;20.00;99.90
44990;DHT22;30723;51.206;3.326;2024-02-15T11:42:55;19.40;99.90
44990;DHT22;30723;51.206;3.326;2024-02-15T11:45:24;19.40;99.90
44990;DHT22;30723;51.206;3.326;2024-02-15T11:47:52;19.40;99.90
44990;DHT22;30723;51.206;3.326;2024-02-15T11:50:20;19.30;99.90
44990;DHT22;30723;51.206;3.326;2024-02-15T11:52:47;19.20;99.90
44990;DHT22;30723;51.206;3.326;2024-02-15T11:55:21;19.40;99.90
44990;DHT22;30723;51.206;3.326;2024-02-15T11:57:59;19.60;99.90
44990;DHT22;30723;51.206;3.326;2024-02-15T12:00:51;19.60;99.90
44990;DHT22;30723;51.206;3.326;2024-02-15T12:03:53;19.50;99.90
44990;DHT22;30723;51.206;3.326;2024-02-15T12:06:38;19.40;99.90
44990;DHT22;30723;51.206;3.326;2024-02-15T12:09:22;19.50;99.90
44990;DHT22;30723;51.206;3.326;2024-02-15T12:12:09;19.70;99.90
44990;DHT22;30723;51.206;3.326;2024-02-15T12:15:03;19.90;99.90
44990;DHT22;30723;51.206;3.326;2024-02-15T12:17:48;19.80;99.90
44990;DHT22;30723;51.206;3.326;2024-02-15T12:20:32;19.60;99.90
44990;DHT22;30723;51.206;3.326;2024-02-15T12:22:59;19.60;99.90
44990;DHT22;30723;51.206;3.326;2024-02-15T12:25:28;19.50;99.90
44990;DHT22;30723;51.206;3.326;2024-02-15T12:27:55;19.30;99.90
44990;DHT22;30723;51.206;3.326;2024-02-15T12:30:22;19.10;99.90
44990;DHT22;30723;51.206;3.326;2024-02-15T12:32:48;18.90;99.90
44990;DHT22;30723;51.206;3.326;2024-02-15T12:35:17;18.80;99.90
44990;DHT22;30723;51.206;3.326;2024-02-15T12:38:00;18.70;99.90
44990;DHT22;30723;51.206;3.326;2024-02-15T12:40:39;18.70;99.90
44990;DHT22;30723;51.206;3.326;2024-02-15T12:43:06;18.90;99.90
44990;DHT22;30723;51.206;3.326;2024-02-15T12:45:39;19.20;99.90
44990;DHT22;30723;51.206;3.326;2024-02-15T12:48:07;19.30;99.90
44990;DHT22;30723;51.206;3.326;2024-02-15T12:50:34;19.70;99.90
44990;DHT22;30723;51.206;3.326;2024-02-15T12:53:00;20.10;99.90
44990;DHT22;30723;51.206;3.326;2024-02-15T12:55:30;20.50;99.90
44990;DHT22;30723;51.206;3.326;2024-02-15T12:58:07;21.00;99.90
44990;DHT22;30723;51.206;3.326;2024-02-15T13:00:39;21.50;99.90
44990;DHT22;30723;51.206;3.326;2024-02-15T13:03:07;21.50;99.90
44990;DHT22;30723;51.206;3.326;2024-02-15T13:05:37;21.20;99.90
44990;DHT22;30723;51.206;3.326;2024-02-15T13:08:03;21.00;99.90
44990;DHT22;30723;51.206;3.326;2024-02-15T13:10:36;21.10;99.90
44990;DHT22;30723;51.206;3.326;2024-02-15T13:13:03;21.00;99.90
44990;DHT22;30723;51.206;3.326;2024-02-15T13:15:29;20.80;99.90
44990;DHT22;30723;51.206;3.326;2024-02-15T13:17:59;20.60;99.90
44990;DHT22;30723;51.206;3.326;2024-02-15T13:20:25;20.40;99.90
44990;DHT22;30723;51.206;3.326;2024-02-15T13:22:58;20.10;99.90
44990;DHT22;30723;51.206;3.326;2024-02-15T13:25:25;19.90;99.90
44990;DHT22;30723;51.206;3.326;2024-02-15T13:27:53;19.80;99.90
44990;DHT22;30723;51.206;3.326;2024-02-15T13:30:19;19.70;99.90
44990;DHT22;30723;51.206;3.326;2024-02-15T13:32:49;19.50;99.90
44990;DHT22;30723;51.206;3.326;2024-02-15T13:35:16;19.40;99.90
44990;DHT22;30723;51.206;3.326;2024-02-15T13:37:53;19.30;99.90
44990;DHT22;30723;51.206;3.326;2024-02-15T13:40:26;19.20;99.90
44990;DHT22;30723;51.206;3.326;2024-02-15T13:42:57;19.10;99.90
44990;DHT22;30723;51.206;3.326;2024-02-15T13:47:58;19.00;99.90
44990;DHT22;30723;51.206;3.326;2024-02-15T13:50:24;19.10;99.90
44990;DHT22;30723;51.206;3.326;2024-02-15T13:52:50;19.00;99.90
44990;DHT22;30723;51.206;3.326;2024-02-15T13:55:18;19.00;99.90
44990;DHT22;30723;51.206;3.326;2024-02-15T13:57:45;18.90;99.90
44990;DHT22;30723;51.206;3.326;2024-02-15T14:00:17;18.80;99.90
44990;DHT22;30723;51.206;3.326;2024-02-15T14:02:54;18.70;99.90
44990;DHT22;30723;51.206;3.326;2024-02-15T14:05:22;18.70;99.90
44990;DHT22;30723;51.206;3.326;2024-02-15T14:07:52;18.50;99.90
44990;DHT22;30723;51.206;3.326;2024-02-15T14:10:19;18.50;99.90
44990;DHT22;30723;51.206;3.326;2024-02-15T14:12:47;18.50;99.90
44990;DHT22;30723;51.206;3.326;2024-02-15T14:15:19;18.50;99.90
44990;DHT22;30723;51.206;3.326;2024-02-15T14:17:45;18.50;99.90
44990;DHT22;30723;51.206;3.326;2024-02-15T14:20:12;18.50;99.90
44990;DHT22;30723;51.206;3.326;2024-02-15T14:22:46;18.50;99.90
44990;DHT22;30723;51.206;3.326;2024-02-15T14:25:18;18.40;99.90
44990;DHT22;30723;51.206;3.326;2024-02-15T14:27:44;18.30;99.90
44990;DHT22;30723;51.206;3.326;2024-02-15T14:30:13;18.20;99.90
44990;DHT22;30723;51.206;3.326;2024-02-15T14:32:57;18.00;99.90
44990;DHT22;30723;51.206;3.326;2024-02-15T14:35:31;17.80;99.90
44990;DHT22;30723;51.206;3.326;2024-02-15T14:38:04;17.80;99.90
44990;DHT22;30723;51.206;3.326;2024-02-15T14:40:38;17.80;99.90
44990;DHT22;30723;51.206;3.326;2024-02-15T14:43:04;17.70;99.90
44990;DHT22;30723;51.206;3.326;2024-02-15T14:45:32;17.70;99.90
44990;DHT22;30723;51.206;3.326;2024-02-15T14:47:58;17.70;99.90
44990;DHT22;30723;51.206;3.326;2024-02-15T14:50:24;17.70;99.90
44990;DHT22;30723;51.206;3.326;2024-02-15T14:52:51;17.70;99.90
44990;DHT22;30723;51.206;3.326;2024-02-15T14:55:19;17.60;99.90
44990;DHT22;30723;51.206;3.326;2024-02-15T14:57:45;17.60;99.90
44990;DHT22;30723;51.206;3.326;2024-02-15T15:00:11;17.40;99.90
44990;DHT22;30723;51.206;3.326;2024-02-15T15:02:46;17.30;99.90
44990;DHT22;30723;51.206;3.326;2024-02-15T15:05:13;17.20;99.90
44990;DHT22;30723;51.206;3.326;2024-02-15T15:07:57;17.10;99.90
44990;DHT22;30723;51.206;3.326;2024-02-15T15:10:43;17.10;99.90
44990;DHT22;30723;51.206;3.326;2024-02-15T15:13:28;17.10;99.90
44990;DHT22;30723;51.206;3.326;2024-02-15T15:15:54;17.00;99.90
44990;DHT22;30723;51.206;3.326;2024-02-15T15:18:20;17.00;99.90
44990;DHT22;30723;51.206;3.326;2024-02-15T15:20:47;16.90;99.90
44990;DHT22;30723;51.206;3.326;2024-02-15T15:23:13;17.00;99.90
44990;DHT22;30723;51.206;3.326;2024-02-15T15:25:39;17.00;99.90
44990;DHT22;30723;51.206;3.326;2024-02-15T15:28:06;17.00;99.90
44990;DHT22;30723;51.206;3.326;2024-02-15T15:30:31;17.00;99.90
44990;DHT22;30723;51.206;3.326;2024-02-15T15:32:58;17.00;99.90
44990;DHT22;30723;51.206;3.326;2024-02-15T15:35:27;17.00;99.90
44990;DHT22;30723;51.206;3.326;2024-02-15T15:37:54;17.10;99.90
44990;DHT22;30723;51.206;3.326;2024-02-15T15:40:20;17.00;99.90
44990;DHT22;30723;51.206;3.326;2024-02-15T15:42:46;16.90;99.90
44990;DHT22;30723;51.206;3.326;2024-02-15T15:45:13;16.90;99.90
44990;DHT22;30723;51.206;3.326;2024-02-15T15:47:39;16.80;99.90
44990;DHT22;30723;51.206;3.326;2024-02-15T15:50:05;16.70;99.90
44990;DHT22;30723;51.206;3.326;2024-02-15T15:52:37;16.70;99.90